Time;durP1;ratioP1;P1;durP2;ratioP2;P2;SDS_P1;SDS_P2;PMS_P1;PMS_P2;Temp;Humidity;BMP_temperature;BMP_pressure;BME280_temperature;BME280_humidity;BME280_pressure;Samples;Min_cycle;Max_cycle;Signal;HPM_P1;HPM_P2
2022/08/26 00:01:22;;;;;;;9.00;4.33;;;;;;;25.38;46.98;94734.72;6064699;28;103647;-66
2022/08/26 00:04:32;;;;;;;7.87;4.60;;;;;;;25.34;47.13;94717.69;6053449;28;103688;-66
2022/08/26 00:07:35;;;;;;;17.53;4.27;;;;;;;25.32;46.93;94714.56;6064508;28;103948;-67
2022/08/26 00:10:39;;;;;;;10.07;5.30;;;;;;;25.33;47.14;94718.81;6065374;28;104923;-66
2022/08/26 00:13:43;;;;;;;10.17;4.57;;;;;;;25.32;46.78;94711.88;6068649;28;103950;-66
2022/08/26 00:16:52;;;;;;;11.67;4.57;;;;;;;25.30;47.00;94714.13;6059037;28;103533;-66
2022/08/26 00:19:57;;;;;;;9.53;4.70;;;;;;;25.32;46.76;94714.56;6068799;28;104992;-66
2022/08/26 00:23:01;;;;;;;9.73;4.37;;;;;;;25.32;46.67;94714.56;6068649;28;104475;-66
2022/08/26 00:26:06;;;;;;;10.00;3.97;;;;;;;25.29;46.90;94715.25;6062819;28;103992;-66
2022/08/26 00:29:10;;;;;;;10.20;4.30;;;;;;;25.26;46.86;94713.22;6063797;28;104080;-66
2022/08/26 00:32:14;;;;;;;13.20;4.03;;;;;;;25.25;46.73;94709.78;6067535;28;103545;-71
2022/08/26 00:35:18;;;;;;;7.67;4.43;;;;;;;25.27;46.85;94709.44;6066872;28;104149;-66
2022/08/26 00:38:22;;;;;;;9.00;3.90;;;;;;;25.29;46.48;94709.88;6058849;28;103709;-66
2022/08/26 00:41:25;;;;;;;11.00;4.20;;;;;;;25.29;46.62;94705.31;6067579;28;103879;-66
2022/08/26 00:44:29;;;;;;;9.70;4.50;;;;;;;25.29;46.24;94699.16;6067595;28;103904;-67
2022/08/26 00:47:38;;;;;;;8.63;4.63;;;;;;;25.30;46.23;94706.09;6068094;28;103827;-66
2022/08/26 00:50:49;;;;;;;10.07;4.20;;;;;;;25.28;46.23;94711.78;6057255;28;103523;-66
2022/08/26 00:53:57;;;;;;;11.60;4.47;;;;;;;25.28;46.19;94698.38;6066981;28;104996;-66
2022/08/26 00:57:05;;;;;;;9.30;4.40;;;;;;;25.27;46.31;94701.41;6067440;28;104752;-66
2022/08/26 01:00:23;;;;;;;10.60;5.23;;;;;;;25.26;46.12;94697.94;6060556;28;106311;-67
2022/08/26 01:03:29;;;;;;;8.10;4.50;;;;;;;25.29;46.61;94701.84;6066888;28;103923;-69
2022/08/26 01:06:33;;;;;;;11.90;4.83;;;;;;;25.31;46.80;94696.94;6066830;28;103788;-69
2022/08/26 01:09:37;;;;;;;10.33;4.70;;;;;;;25.32;46.33;94693.91;6067784;28;103710;-68
2022/08/26 01:12:46;;;;;;;8.17;4.70;;;;;;;25.30;46.44;94695.38;6057615;28;104468;-68
2022/08/26 01:15:55;;;;;;;12.73;4.80;;;;;;;25.27;46.53;94693.38;6066748;28;103676;-69
2022/08/26 01:19:14;;;;;;;11.20;4.70;;;;;;;25.24;46.59;94699.41;6067000;28;103859;-68
2022/08/26 01:22:21;;;;;;;13.57;5.17;;;;;;;25.18;46.36;94692.69;6066745;28;103657;-67
2022/08/26 01:25:34;;;;;;;9.87;4.40;;;;;;;25.20;46.63;94690.44;6052490;28;103709;-68
2022/08/26 01:28:39;;;;;;;10.57;4.73;;;;;;;25.21;46.29;94692.81;6067260;28;105021;-69
2022/08/26 01:31:46;;;;;;;11.80;5.37;;;;;;;25.22;46.12;94691.69;6066716;28;104222;-68
2022/08/26 01:34:49;;;;;;;9.00;4.67;;;;;;;25.23;46.37;94690.56;6056462;28;103739;-69
2022/08/26 01:37:56;;;;;;;9.93;4.90;;;;;;;25.21;46.38;94700.06;6067038;28;103984;-69
2022/08/26 01:41:01;;;;;;;8.30;3.97;;;;;;;25.16;46.48;94695.69;6066127;28;103982;-69
2022/08/26 01:44:06;;;;;;;10.67;4.77;;;;;;;25.20;46.38;94701.94;6066545;28;104655;-68
2022/08/26 01:47:13;;;;;;;6.97;3.87;;;;;;;25.16;46.17;94700.25;6041802;28;103753;-71
2022/08/26 01:50:20;;;;;;;9.43;4.10;;;;;;;25.17;46.40;94697.25;6065857;28;103691;-68
2022/08/26 01:53:32;;;;;;;13.43;4.50;;;;;;;25.20;46.38;94698.47;6055886;28;103710;-70
2022/08/26 01:56:37;;;;;;;10.17;4.43;;;;;;;25.21;45.90;94700.84;6061628;28;103988;-70
2022/08/26 01:59:42;;;;;;;13.07;4.97;;;;;;;25.17;46.29;94697.25;6060746;28;104510;-69
2022/08/26 02:02:48;;;;;;;7.00;4.00;;;;;;;25.17;46.27;94702.59;6066341;28;103788;-69
2022/08/26 02:05:54;;;;;;;11.50;4.30;;;;;;;25.15;45.66;94699.47;6065593;28;103891;-69
2022/08/26 02:08:59;;;;;;;10.93;4.30;;;;;;;25.14;45.85;94699.81;6057112;28;104117;-69
2022/08/26 02:12:05;;;;;;;8.73;4.30;;;;;;;25.14;46.08;94697.13;6066160;28;103758;-70
2022/08/26 02:15:12;;;;;;;13.00;4.50;;;;;;;25.12;46.06;94697.47;6066224;28;103696;-68
2022/08/26 02:18:16;;;;;;;10.33;5.43;;;;;;;25.13;46.01;94680.28;6066301;28;103750;-69
2022/08/26 02:21:19;;;;;;;16.60;12.20;;;;;;;25.14;46.17;94697.94;6055245;28;103734;-69
2022/08/26 02:24:25;;;;;;;15.00;8.13;;;;;;;25.12;46.00;94686.78;6065419;28;103915;-69
2022/08/26 02:27:35;;;;;;;11.50;6.13;;;;;;;25.13;46.27;94687.53;6066168;28;104117;-70
2022/08/26 02:30:39;;;;;;;11.67;5.20;;;;;;;25.13;46.34;94682.19;6059776;28;104202;-70
2022/08/26 02:33:42;;;;;;;9.90;4.67;;;;;;;25.11;46.41;94687.88;6057074;28;103974;-69
2022/08/26 02:36:46;;;;;;;13.07;5.13;;;;;;;25.06;46.12;94688.91;6065290;28;104045;-69
2022/08/26 02:39:49;;;;;;;10.53;4.87;;;;;;;25.07;46.05;94687.78;6064831;28;104730;-69
2022/08/26 02:42:55;;;;;;;13.30;5.40;;;;;;;25.06;46.02;94686.22;6056474;28;103726;-67
2022/08/26 02:45:59;;;;;;;12.57;6.40;;;;;;;25.08;46.09;94686.66;6065309;28;103867;-70
2022/08/26 02:49:04;;;;;;;21.47;19.30;;;;;;;25.11;46.13;94697.81;6066114;28;106499;-70
2022/08/26 02:52:07;;;;;;;19.33;15.70;;;;;;;25.08;46.34;94693.91;6064916;28;103673;-69
2022/08/26 02:55:10;;;;;;;13.67;7.70;;;;;;;25.03;46.07;94694.09;6054675;28;104576;-70
2022/08/26 02:58:16;;;;;;;10.70;5.73;;;;;;;25.03;45.73;94694.09;6065551;28;105126;-69
2022/08/26 03:01:21;;;;;;;9.13;4.60;;;;;;;25.05;45.92;94694.59;6064621;28;104823;-70
2022/08/26 03:04:25;;;;;;;10.53;6.07;;;;;;;25.09;45.98;94690.91;6064994;28;106669;-69
2022/08/26 03:07:28;;;;;;;12.73;5.97;;;;;;;25.05;45.85;94695.38;6055209;28;103588;-69
2022/08/26 03:10:31;;;;;;;17.43;5.20;;;;;;;24.81;46.51;94689.16;6063824;28;103709;-69
2022/08/26 03:13:36;;;;;;;7.77;4.70;;;;;;;24.70;46.33;94691.50;6064984;28;103554;-69
2022/08/26 03:16:39;;;;;;;13.10;4.40;;;;;;;24.67;46.84;94697.47;6059879;28;103462;-69
2022/08/26 03:19:43;;;;;;;18.60;5.37;;;;;;;24.71;46.60;94701.09;6055556;28;104512;-69
2022/08/26 03:22:47;;;;;;;6.83;4.50;;;;;;;24.80;46.18;94693.75;6061057;28;104423;-67
2022/08/26 03:25:51;;;;;;;16.13;6.60;;;;;;;24.94;46.22;94699.56;6063573;28;103967;-69
2022/08/26 03:32:19;;;;;;;10.17;3.93;;;;;;;24.90;45.80;94701.34;6074522;28;103872;-69
2022/08/26 03:35:23;;;;;;;14.03;5.30;;;;;;;24.63;46.58;94701.91;6064364;28;104784;-69
2022/08/26 03:38:26;;;;;;;8.53;4.30;;;;;;;24.66;46.67;94690.56;6060471;28;104031;-69
2022/08/26 03:41:31;;;;;;;13.77;4.73;;;;;;;24.78;46.33;94694.06;6052689;28;104010;-68
2022/08/26 03:44:36;;;;;;;9.67;4.50;;;;;;;24.61;46.69;94693.44;6066129;28;103963;-69
2022/08/26 03:47:44;;;;;;;10.93;4.73;;;;;;;24.74;46.52;94690.50;6066969;28;103497;-67
2022/08/26 03:50:48;;;;;;;12.00;4.40;;;;;;;24.61;46.39;94696.13;6064131;28;104018;-66
2022/08/26 03:53:53;;;;;;;12.53;4.50;;;;;;;24.57;46.85;94689.88;6063426;28;103800;-70
2022/08/26 03:56:56;;;;;;;13.40;4.63;;;;;;;24.78;47.11;94695.97;6062764;28;106962;-69
2022/08/26 04:00:01;;;;;;;14.60;4.97;;;;;;;24.91;46.49;94694.09;6064285;28;104003;-68
2022/08/26 04:03:04;;;;;;;15.43;5.50;;;;;;;24.96;46.33;94701.91;6047183;28;103703;-69
2022/08/26 04:06:12;;;;;;;9.37;5.17;;;;;;;24.99;46.32;94696.69;6059345;28;103528;-69
2022/08/26 04:09:19;;;;;;;9.50;4.40;;;;;;;24.94;45.75;94688.88;6064513;28;103782;-69
2022/08/26 04:12:24;;;;;;;16.37;5.67;;;;;;;24.92;46.09;94685.75;6063092;28;103888;-69
2022/08/26 04:15:30;;;;;;;11.20;4.63;;;;;;;25.03;46.06;94692.25;6055030;28;104027;-69
2022/08/26 04:18:36;;;;;;;10.37;4.33;;;;;;;25.09;46.38;94693.56;6060802;28;103730;-71
2022/08/26 04:21:51;;;;;;;15.33;5.33;;;;;;;24.98;46.08;94692.44;6064923;28;104751;-68
2022/08/26 04:24:55;;;;;;;15.43;5.23;;;;;;;24.97;45.70;94692.78;6063656;28;104381;-68
2022/08/26 04:27:58;;;;;;;13.07;4.97;;;;;;;24.91;46.01;94684.19;6062519;28;103712;-69
2022/08/26 04:31:02;;;;;;;20.37;5.10;;;;;;;24.84;46.55;94691.19;6068293;28;104262;-69
2022/08/26 04:34:06;;;;;;;16.67;5.80;;;;;;;24.90;46.05;94687.97;6068806;28;103719;-69
2022/08/26 04:37:13;;;;;;;16.27;4.90;;;;;;;24.79;46.17;94687.59;6055960;28;103783;-68
2022/08/26 04:40:16;;;;;;;12.23;4.43;;;;;;;24.83;45.94;94686.94;6065805;28;105042;-68
2022/08/26 04:43:19;;;;;;;12.80;5.40;;;;;;;24.68;46.26;94689.13;6065838;28;103778;-68
2022/08/26 04:46:25;;;;;;;9.83;4.43;;;;;;;24.73;46.34;94698.88;6066027;28;104060;-69
2022/08/26 04:49:28;;;;;;;15.03;5.33;;;;;;;24.69;46.67;94700.63;6057544;28;105121;-68
2022/08/26 04:52:37;;;;;;;11.80;5.20;;;;;;;24.72;46.41;94691.94;6068235;28;104760;-69
2022/08/26 04:55:40;;;;;;;15.40;5.60;;;;;;;24.79;46.31;94695.63;6067724;28;103924;-69
2022/08/26 04:58:48;;;;;;;17.20;5.27;;;;;;;24.80;46.65;94696.41;6068008;28;103701;-68
2022/08/26 05:01:55;;;;;;;13.97;6.20;;;;;;;24.71;47.10;94693.84;6059136;28;104584;-68
2022/08/26 05:04:58;;;;;;;13.03;5.53;;;;;;;24.75;46.92;94699.31;6068341;28;103561;-68
2022/08/26 05:08:01;;;;;;;10.70;6.47;;;;;;;24.65;47.21;94697.78;6067467;28;104936;-69
2022/08/26 05:11:06;;;;;;;10.80;5.60;;;;;;;24.50;47.83;94703.75;6058012;28;103693;-68
2022/08/26 05:14:11;;;;;;;9.80;4.90;;;;;;;24.43;47.64;94706.97;6067055;28;103682;-68
2022/08/26 05:17:16;;;;;;;13.70;5.93;;;;;;;24.37;47.70;94702.19;6068004;28;103803;-69
2022/08/26 05:20:19;;;;;;;18.03;5.33;;;;;;;24.37;47.53;94705.63;6068136;28;103856;-69
2022/08/26 05:23:30;;;;;;;14.00;5.47;;;;;;;24.37;47.64;94702.97;6057271;28;103925;-71
2022/08/26 05:26:33;;;;;;;11.33;4.83;;;;;;;24.42;47.54;94710.00;6067994;28;103477;-69
2022/08/26 05:29:37;;;;;;;12.73;5.37;;;;;;;24.44;47.92;94711.22;6067600;28;103706;-69
2022/08/26 05:32:41;;;;;;;12.67;5.00;;;;;;;24.59;47.54;94720.53;6067697;28;103792;-69
2022/08/26 05:35:46;;;;;;;10.70;4.30;;;;;;;24.48;48.13;94714.00;6058186;28;105532;-70
2022/08/26 05:38:49;;;;;;;11.43;4.80;;;;;;;24.56;47.64;94715.84;6067197;28;103954;-70
2022/08/26 05:41:52;;;;;;;17.00;5.70;;;;;;;24.68;47.43;94725.81;6067504;28;103671;-70
2022/08/26 05:44:55;;;;;;;12.53;5.33;;;;;;;24.75;47.15;94715.38;6060974;28;104041;-69
2022/08/26 05:48:00;;;;;;;11.13;5.07;;;;;;;24.80;47.09;94717.81;6065814;28;104914;-70
2022/08/26 05:51:06;;;;;;;12.53;5.03;;;;;;;24.81;47.30;94719.41;6067230;28;104469;-69
2022/08/26 05:54:09;;;;;;;14.53;6.13;;;;;;;24.84;46.75;94716.03;6067226;28;103649;-70
2022/08/26 05:57:12;;;;;;;13.33;5.30;;;;;;;24.84;47.09;94713.38;6056599;28;103796;-72
2022/08/26 06:00:16;;;;;;;13.27;5.50;;;;;;;24.85;46.64;94706.91;6066536;28;103658;-70
2022/08/26 06:03:20;;;;;;;12.33;5.27;;;;;;;24.89;46.78;94718.53;6067034;28;103749;-71
2022/08/26 06:06:28;;;;;;;13.40;5.90;;;;;;;24.90;47.00;94720.09;6066778;28;104098;-70
2022/08/26 06:09:32;;;;;;;10.70;5.37;;;;;;;24.92;47.21;94727.78;6056476;28;104729;-69
2022/08/26 06:12:36;;;;;;;13.73;5.43;;;;;;;24.95;47.27;94724.44;6067479;28;105241;-70
2022/08/26 06:15:41;;;;;;;12.17;5.53;;;;;;;24.94;47.35;94721.00;6066325;28;103932;-70
2022/08/26 06:18:48;;;;;;;10.90;4.93;;;;;;;24.95;47.64;94727.91;6062517;28;103506;-68
2022/08/26 06:21:51;;;;;;;13.57;5.20;;;;;;;24.95;47.41;94733.25;6060846;28;103736;-69
2022/08/26 06:28:17;;;;;;;13.17;5.20;;;;;;;24.97;47.38;94736.38;6066238;28;103726;-68
2022/08/26 06:31:20;;;;;;;9.20;5.27;;;;;;;24.97;47.68;94738.28;6056254;28;103675;-70
2022/08/26 06:34:27;;;;;;;15.30;5.43;;;;;;;24.99;47.44;94736.84;6066620;28;103823;-70
2022/08/26 06:37:32;;;;;;;12.33;5.80;;;;;;;24.97;47.28;94740.97;6066688;28;103960;-70
2022/08/26 06:40:41;;;;;;;14.70;5.87;;;;;;;24.98;47.38;94743.31;6065926;28;103748;-70
2022/08/26 06:43:44;;;;;;;14.80;6.20;;;;;;;24.98;47.64;94743.31;6056703;28;104806;-70
2022/08/26 06:46:48;;;;;;;10.80;5.30;;;;;;;25.00;47.71;94751.78;6065760;28;104029;-70
2022/08/26 06:49:54;;;;;;;15.43;5.83;;;;;;;25.01;47.86;94748.00;6065759;28;103683;-70
2022/08/26 06:52:58;;;;;;;10.23;5.67;;;;;;;25.02;47.53;94754.91;6060977;28;104902;-70
2022/08/26 06:56:05;;;;;;;11.10;5.57;;;;;;;25.00;47.62;94751.00;6062170;28;103625;-68
2022/08/26 06:59:09;;;;;;;14.17;6.10;;;;;;;25.02;47.79;94749.56;6065544;28;103902;-68
2022/08/26 07:02:13;;;;;;;13.23;5.87;;;;;;;25.02;47.43;94746.88;6065562;28;104442;-68
2022/08/26 07:05:21;;;;;;;17.10;5.47;;;;;;;25.04;47.76;94750.03;6054602;28;103676;-68
2022/08/26 07:08:24;;;;;;;11.10;5.63;;;;;;;25.04;47.53;94750.03;6065954;28;103940;-68
2022/08/26 07:11:27;;;;;;;9.70;5.80;;;;;;;25.05;47.34;94748.13;6065798;28;103867;-67
2022/08/26 07:14:31;;;;;;;8.77;5.50;;;;;;;25.05;47.77;94753.47;6065812;28;103915;-69
2022/08/26 07:17:35;;;;;;;12.20;6.10;;;;;;;25.08;47.66;94747.47;6054860;28;104740;-69
2022/08/26 07:20:42;;;;;;;15.77;6.00;;;;;;;25.09;47.71;94755.16;6065271;28;104329;-69
2022/08/26 07:23:45;;;;;;;14.70;5.93;;;;;;;25.11;47.85;94749.47;6065992;28;103665;-69
2022/08/26 07:26:48;;;;;;;13.40;6.23;;;;;;;25.16;47.87;94751.16;6061034;28;104699;-69
2022/08/26 07:29:56;;;;;;;10.33;5.00;;;;;;;25.19;48.03;94753.16;6060273;28;103737;-69
2022/08/26 07:33:00;;;;;;;12.97;5.73;;;;;;;25.20;47.73;94752.81;6065710;28;103726;-69
2022/08/26 07:36:05;;;;;;;12.20;6.30;;;;;;;25.26;48.07;94759.53;6065449;28;104252;-70
2022/08/26 07:39:08;;;;;;;12.13;5.80;;;;;;;25.30;47.55;94760.44;6054778;28;103849;-69
2022/08/26 07:42:14;;;;;;;9.07;5.60;;;;;;;25.33;47.46;94750.94;6066229;28;104006;-70
2022/08/26 07:45:17;;;;;;;10.87;5.80;;;;;;;25.36;47.25;94747.63;6066211;28;103946;-70
2022/08/26 07:48:21;;;;;;;8.93;6.00;;;;;;;25.43;47.30;94749.78;6065738;28;103750;-69
2022/08/26 07:51:27;;;;;;;11.53;5.73;;;;;;;25.49;47.15;94749.19;6053921;28;103900;-70
2022/08/26 07:54:30;;;;;;;11.83;5.40;;;;;;;25.58;47.12;94746.44;6065151;28;103829;-69
2022/08/26 07:57:34;;;;;;;12.40;5.93;;;;;;;25.69;46.65;94750.97;6064917;28;103771;-69
2022/08/26 08:00:37;;;;;;;9.87;5.50;;;;;;;25.78;47.15;94750.88;6061345;28;104790;-69
2022/08/26 08:03:40;;;;;;;8.40;5.07;;;;;;;25.86;46.74;94749.19;6059736;28;104724;-70
2022/08/26 08:06:45;;;;;;;11.67;5.17;;;;;;;25.90;46.66;94744.75;6064373;28;103932;-70
2022/08/26 08:09:55;;;;;;;9.33;5.87;;;;;;;25.91;46.51;94746.28;6066081;28;105303;-74
2022/08/26 08:12:59;;;;;;;10.10;5.03;;;;;;;25.90;46.86;94748.19;6054946;28;103617;-70
2022/08/26 08:16:02;;;;;;;6.67;5.07;;;;;;;25.93;47.08;94744.06;6065088;28;103873;-70
2022/08/26 08:19:05;;;;;;;8.20;5.10;;;;;;;25.96;46.70;94741.47;6064975;28;103790;-70
2022/08/26 08:22:10;;;;;;;13.70;5.93;;;;;;;25.98;46.65;94743.81;6065019;28;104225;-69
2022/08/26 08:25:22;;;;;;;11.00;5.40;;;;;;;25.95;46.85;94747.97;6054775;28;104057;-69
2022/08/26 08:28:25;;;;;;;6.50;5.20;;;;;;;25.96;46.36;94740.69;6064933;28;103859;-70
2022/08/26 08:31:30;;;;;;;7.90;5.20;;;;;;;25.99;45.61;94735.44;6065759;28;105081;-69
2022/08/26 08:34:53;;;;;;;13.80;5.50;;;;;;;26.06;46.08;94737.59;6040538;28;105456;-69
2022/08/26 08:37:59;;;;;;;6.37;4.43;;;;;;;26.07;46.24;94733.00;6040278;28;103922;-70
2022/08/26 08:41:06;;;;;;;11.80;5.60;;;;;;;26.10;45.42;94733.09;6046305;28;103556;-69
2022/08/26 08:44:17;;;;;;;8.67;5.00;;;;;;;26.17;45.43;94727.16;6045590;28;103898;-69
2022/08/26 08:47:32;;;;;;;9.93;5.03;;;;;;;26.22;44.96;94721.56;6093217;22;104517;-77
2022/08/26 08:50:39;;;;;;;7.83;5.23;;;;;;;26.28;45.30;94729.03;6070854;28;103349;-76
2022/08/26 08:53:48;;;;;;;11.97;5.70;;;;;;;26.38;43.72;94718.91;6070661;28;103767;-76
2022/08/26 08:57:06;;;;;;;11.07;5.20;;;;;;;26.36;44.16;94718.47;6070678;28;104076;-77
2022/08/26 09:00:16;;;;;;;9.70;4.67;;;;;;;26.33;44.01;94716.50;6066048;28;103569;-77
2022/08/26 09:03:36;;;;;;;12.47;5.53;;;;;;;26.33;44.20;94721.84;6071610;28;104701;-78
2022/08/26 09:06:41;;;;;;;6.40;4.90;;;;;;;26.37;44.15;94714.69;6070544;28;104020;-78
2022/08/26 09:09:51;;;;;;;9.83;4.93;;;;;;;26.40;44.30;94720.16;6062258;28;103767;-78
2022/08/26 09:12:55;;;;;;;7.80;4.90;;;;;;;26.42;44.36;94712.56;6071097;28;103482;-77
2022/08/26 09:16:06;;;;;;;11.57;5.00;;;;;;;26.42;43.97;94709.09;6070900;28;104368;-78
2022/08/26 09:19:27;;;;;;;12.20;5.10;;;;;;;26.47;43.67;94714.19;6069411;28;103934;-78
2022/08/26 09:22:32;;;;;;;6.73;4.80;;;;;;;26.51;43.49;94704.34;6063574;28;103891;-79
2022/08/26 09:25:46;;;;;;;9.33;5.30;;;;;;;26.54;43.19;94709.03;6071923;28;103890;-77
2022/08/26 09:28:57;;;;;;;9.63;5.20;;;;;;;26.54;43.43;94703.66;6071484;28;104207;-77
2022/08/26 09:32:18;;;;;;;10.30;5.80;;;;;;;26.54;43.56;94696.38;6063697;28;105801;-79
2022/08/26 09:35:26;;;;;;;8.07;5.33;;;;;;;26.56;43.49;94693.38;6080373;22;103715;-76
2022/08/26 09:38:34;;;;;;;8.80;5.07;;;;;;;26.59;43.64;94692.69;6092652;23;104058;-78
2022/08/26 09:41:38;;;;;;;13.63;5.00;;;;;;;26.63;43.19;94690.91;6095656;28;103983;-78
2022/08/26 09:44:56;;;;;;;6.27;5.03;;;;;;;26.65;43.72;94685.19;6059460;28;107015;-79
2022/08/26 09:47:59;;;;;;;10.60;5.37;;;;;;;26.67;43.68;94686.41;6066207;28;104083;-78
2022/08/26 09:51:05;;;;;;;7.77;5.23;;;;;;;26.67;43.48;94689.09;6071844;28;106962;-78
2022/08/26 09:54:25;;;;;;;7.47;5.50;;;;;;;26.64;43.81;94692.47;6068191;28;103942;-78
2022/08/26 09:57:35;;;;;;;6.17;4.60;;;;;;;26.65;42.98;94685.97;6071479;28;106358;-78
2022/08/26 10:00:54;;;;;;;6.47;4.90;;;;;;;26.66;43.38;94695.56;6071802;28;103754;-78
2022/08/26 10:04:06;;;;;;;9.33;5.23;;;;;;;26.67;43.15;94689.09;6071513;28;103600;-78
2022/08/26 10:07:09;;;;;;;6.83;5.37;;;;;;;26.70;43.05;94687.63;6063097;28;103982;-77
2022/08/26 10:10:18;;;;;;;7.57;4.70;;;;;;;26.68;43.51;94687.97;6070906;28;104846;-77
2022/08/26 10:13:32;;;;;;;6.07;4.93;;;;;;;26.67;43.55;94678.34;6071051;28;107925;-80
2022/08/26 10:16:50;;;;;;;7.40;5.83;;;;;;;26.64;43.37;94670.22;6068375;28;103786;-78
2022/08/26 10:20:00;;;;;;;6.83;5.87;;;;;;;26.61;43.81;94679.69;6066805;28;106109;-77
2022/08/26 10:23:07;;;;;;;7.40;5.70;;;;;;;26.60;43.74;94680.81;6071590;28;103671;-78
2022/08/26 10:26:16;;;;;;;9.60;5.20;;;;;;;26.59;43.27;94673.91;6070913;28;103762;-78
2022/08/26 10:29:26;;;;;;;5.47;4.97;;;;;;;26.58;43.38;94675.03;6061908;28;103969;-77
2022/08/26 10:32:37;;;;;;;6.07;5.10;;;;;;;26.55;42.75;94663.06;6071035;28;103457;-78
2022/08/26 10:35:51;;;;;;;8.50;5.80;;;;;;;26.55;43.18;94676.50;6070593;28;106116;-76
2022/08/26 10:38:54;;;;;;;7.17;5.90;;;;;;;26.52;43.06;94662.97;6070219;28;103024;-77
2022/08/26 10:42:05;;;;;;;6.83;5.33;;;;;;;26.51;43.41;94672.13;6062565;28;105003;-77
2022/08/26 10:45:18;;;;;;;6.80;5.47;;;;;;;26.51;43.08;94669.44;6070876;28;103710;-78
2022/08/26 10:48:27;;;;;;;8.80;6.40;;;;;;;26.51;42.82;94670.22;6071054;28;107050;-77
2022/08/26 10:51:42;;;;;;;9.77;5.73;;;;;;;26.50;42.89;94666.00;6062152;28;103421;-77
2022/08/26 10:54:54;;;;;;;6.83;6.03;;;;;;;26.49;42.68;94672.47;6070481;28;102972;-77
2022/08/26 10:58:06;;;;;;;6.63;5.93;;;;;;;26.49;42.81;94666.34;6070306;28;103776;-77
2022/08/26 11:01:44;;;;;;;6.30;5.70;;;;;;;26.47;42.95;94661.31;6071245;28;103966;-78
2022/08/26 11:04:56;;;;;;;7.20;6.30;;;;;;;26.47;42.74;94661.31;6078756;28;106216;-78
2022/08/26 11:08:28;;;;;;;8.33;6.40;;;;;;;26.43;42.76;94649.72;6070155;28;104095;-77
2022/08/26 11:11:47;;;;;;;11.60;7.40;;;;;;;26.44;42.51;94651.28;6070513;28;103595;-78
2022/08/26 11:14:51;;;;;;;8.40;7.17;;;;;;;26.46;42.71;94653.59;6063402;28;103867;-78
2022/08/26 11:18:04;;;;;;;7.80;6.20;;;;;;;26.46;42.78;94658.97;6070598;28;104218;-78
2022/08/26 11:21:47;;;;;;;9.37;7.00;;;;;;;26.43;42.70;94654.31;6071166;28;103915;-77
2022/08/26 11:25:12;;;;;;;8.43;6.70;;;;;;;26.39;42.75;94654.22;6065924;28;103682;-77
2022/08/26 11:28:33;;;;;;;7.67;6.70;;;;;;;26.47;41.79;94655.16;6069714;28;104563;-78
2022/08/26 11:31:57;;;;;;;9.00;7.13;;;;;;;26.54;42.10;94648.06;6071577;28;104954;-78
2022/08/26 11:35:05;;;;;;;8.60;7.20;;;;;;;26.58;42.18;94648.19;6070571;28;104128;-78
2022/08/26 11:38:16;;;;;;;8.00;7.20;;;;;;;26.56;42.46;94653.13;6063819;28;105814;-77
2022/08/26 11:41:28;;;;;;;9.50;7.03;;;;;;;26.55;41.79;94649.66;6071902;28;103789;-77
2022/08/26 11:44:39;;;;;;;9.17;7.17;;;;;;;26.54;42.36;94655.34;6072582;28;103993;-78
2022/08/26 11:47:43;;;;;;;10.97;7.00;;;;;;;26.57;41.66;94650.09;6068390;28;103454;-78
2022/08/26 11:50:55;;;;;;;8.87;7.87;;;;;;;26.58;41.86;94648.97;6067875;28;104543;-76
2022/08/26 11:54:12;;;;;;;8.43;7.30;;;;;;;26.58;42.11;94648.19;6071522;28;104328;-77
2022/08/26 11:57:18;;;;;;;9.90;8.40;;;;;;;26.51;41.44;94639.94;6069422;28;104028;-77
2022/08/26 12:00:29;;;;;;;8.50;7.70;;;;;;;26.45;42.02;94641.31;6060796;28;104149;-77
2022/08/26 12:03:41;;;;;;;13.80;8.53;;;;;;;26.42;41.59;94639.31;6069467;28;104286;-77
2022/08/26 12:06:50;;;;;;;10.70;9.60;;;;;;;26.42;41.17;94633.97;6071219;28;104313;-76
2022/08/26 12:09:58;;;;;;;8.90;8.10;;;;;;;26.39;41.30;94626.59;6072499;28;103355;-76
2022/08/26 12:13:06;;;;;;;8.97;8.07;;;;;;;26.39;41.67;94624.69;6069114;28;104235;-78
2022/08/26 12:16:09;;;;;;;11.17;9.10;;;;;;;26.38;41.15;94625.00;6073874;28;104968;-77
2022/08/26 12:19:28;;;;;;;9.97;8.10;;;;;;;26.37;41.62;94623.44;6073486;28;104336;-78
2022/08/26 12:22:37;;;;;;;9.40;8.60;;;;;;;26.34;41.17;94616.88;6065562;28;103585;-78
2022/08/26 12:25:48;;;;;;;10.70;9.20;;;;;;;26.34;41.10;94613.41;6073605;28;103716;-79
2022/08/26 12:28:55;;;;;;;10.80;9.70;;;;;;;26.33;41.12;94611.84;6074170;28;103844;-78
2022/08/26 12:32:08;;;;;;;9.77;8.97;;;;;;;26.31;41.79;94600.69;6073909;28;103583;-77
2022/08/26 12:35:13;;;;;;;10.27;9.23;;;;;;;26.31;41.63;94598.00;6064134;28;104050;-78
2022/08/26 12:38:19;;;;;;;11.50;9.90;;;;;;;26.30;41.45;94591.88;6072928;28;103961;-78
2022/08/26 12:41:42;;;;;;;10.93;9.93;;;;;;;26.32;41.45;94603.03;6073021;28;103640;-78
2022/08/26 12:44:47;;;;;;;11.87;10.73;;;;;;;26.30;41.74;94605.28;6066392;28;103672;-77
2022/08/26 12:47:59;;;;;;;13.20;11.13;;;;;;;26.27;41.31;94604.06;6072537;28;102877;-78
2022/08/26 12:51:04;;;;;;;12.23;10.77;;;;;;;26.27;41.43;94598.69;6073395;28;104024;-77
2022/08/26 12:54:14;;;;;;;16.50;12.67;;;;;;;26.29;41.26;94595.66;6073303;28;102870;-77
2022/08/26 12:57:18;;;;;;;13.77;11.90;;;;;;;26.31;41.11;94595.31;6065261;28;104330;-78
2022/08/26 13:00:33;;;;;;;15.37;12.27;;;;;;;26.29;41.22;94595.66;6073828;28;104021;-77
2022/08/26 13:03:44;;;;;;;13.53;12.23;;;;;;;26.32;40.96;94604.94;6074243;28;103675;-78
2022/08/26 13:06:47;;;;;;;12.63;11.33;;;;;;;26.32;41.25;94603.03;6070950;28;103676;-76
2022/08/26 13:09:53;;;;;;;13.70;12.17;;;;;;;26.30;40.99;94602.59;6068388;28;104114;-78
2022/08/26 13:12:57;;;;;;;11.20;10.17;;;;;;;26.32;40.86;94594.97;6073021;28;104012;-79
2022/08/26 13:16:00;;;;;;;13.30;10.53;;;;;;;26.29;40.72;94587.63;6073085;28;104152;-77
2022/08/26 13:19:06;;;;;;;13.83;10.63;;;;;;;26.30;40.89;94601.81;6064821;28;105571;-78
2022/08/26 13:22:14;;;;;;;13.20;11.57;;;;;;;26.29;41.36;94593.00;6072806;28;104207;-77
2022/08/26 13:25:19;;;;;;;12.50;11.20;;;;;;;26.27;41.06;94598.69;6072433;28;103618;-77
2022/08/26 13:28:23;;;;;;;11.50;10.20;;;;;;;26.28;40.90;94588.75;6073041;28;103641;-79
2022/08/26 13:31:28;;;;;;;13.93;10.83;;;;;;;26.27;40.97;94592.56;6063997;28;104908;-77
2022/08/26 13:34:32;;;;;;;10.83;9.87;;;;;;;26.28;40.82;94589.53;6073239;28;104203;-79
2022/08/26 13:37:36;;;;;;;12.87;9.60;;;;;;;26.27;40.44;94585.28;6074077;28;103685;-79
2022/08/26 13:40:42;;;;;;;14.27;9.80;;;;;;;26.28;40.76;94589.53;6073867;28;103941;-78
2022/08/26 13:43:45;;;;;;;11.60;9.50;;;;;;;26.28;40.42;94597.56;6066332;28;103971;-79
2022/08/26 13:46:49;;;;;;;12.00;9.20;;;;;;;26.28;40.17;94586.84;6073820;28;105152;-78
2022/08/26 13:49:52;;;;;;;10.57;9.57;;;;;;;26.25;40.40;94587.53;6074423;28;104003;-77
2022/08/26 13:52:55;;;;;;;11.33;9.13;;;;;;;26.26;40.82;94589.09;6066571;28;108365;-79
2022/08/26 13:56:01;;;;;;;10.30;9.30;;;;;;;26.26;40.66;94588.31;6072797;28;105163;-78
2022/08/26 13:59:07;;;;;;;12.17;9.23;;;;;;;26.26;40.76;94588.31;6073168;28;104908;-77
2022/08/26 14:02:11;;;;;;;10.27;8.87;;;;;;;26.26;40.52;94583.72;6074427;28;103573;-78
2022/08/26 14:05:14;;;;;;;10.47;8.40;;;;;;;26.26;40.19;94588.31;6067008;28;104169;-77
2022/08/26 14:08:18;;;;;;;10.73;8.67;;;;;;;26.26;39.79;94591.78;6073305;28;102897;-78
2022/08/26 14:11:23;;;;;;;9.70;8.60;;;;;;;26.25;40.05;94590.22;6073672;28;104246;-79
2022/08/26 14:14:27;;;;;;;9.47;8.47;;;;;;;26.27;40.07;94600.59;6075108;28;104394;-77
2022/08/26 14:17:31;;;;;;;9.03;8.13;;;;;;;26.28;40.05;94588.75;6065530;28;103954;-78
2022/08/26 14:20:35;;;;;;;9.00;8.10;;;;;;;26.26;39.92;94591.00;6072217;28;103749;-79
2022/08/26 14:23:40;;;;;;;8.27;7.47;;;;;;;26.26;38.58;94591.78;6070301;28;104724;-78
2022/08/26 14:26:47;;;;;;;8.47;6.70;;;;;;;26.36;38.37;94589.69;6065058;28;103652;-77
2022/08/26 14:29:50;;;;;;;8.33;7.10;;;;;;;26.33;37.36;94583.13;6066901;28;104310;-76